< < Back
Terminal Aerodrome Forecast


Current Version              Previous Versions:   1  2  3  4  5  6  7  8  9  

Terminal Aerodrome Forecast

837
FTUS42 KFFC 261729
TAFAHN
TAF
KAHN 261729Z 2618/2718 23003KT P6SM VCSH SCT045 BKN080
     FM262000 23003KT P6SM SCT050
     FM270100 00000KT P6SM SCT045
     FM271500 14003KT P6SM BKN050=

Latest METAR

438
SAUS70 KWBC 261800
MTRAHN
METAR KAHN 261751Z 29006KT 10SM FEW055 30/17 A3016 RMK AO2 SLP206
T03000167 10311 20194 58012


USA.gov is the U.S. government's official web portal to all federal, state and local government web resources and services.